Terminal Aerodrome Forecast
Issued by NWS Sterling, VA

Current Version | Previous Version | Graphics & Text | Print | Product List | Glossary On
Versions: 1 2 3 4 5 6 7 8 9 10 11 12 13 14 15 16 17 18 19 20 21 22 23 24 25 26 27
000
FTUS41 KLWX 222044 AAC
TAFDCA
TAF AMD
KDCA 222044Z 2221/2324 27015G35KT 1SM +TSRA BKN020 BKN040CB
     FM222200 21007KT 5SM -SHRA VCTS SCT025 BKN050CB
     FM230000 21005KT P6SM BKN070
     FM230900 25005KT P6SM BKN060
     FM231100 28006KT P6SM BKN250
     FM231500 33008KT P6SM SCT035=

USA.gov is the U.S. government's official web portal to all federal, state and local government web resources and services.